Time;durP1;ratioP1;P1;durP2;ratioP2;P2;SDS_P1;SDS_P2;PMS_P1;PMS_P2;Temp;Humidity;BMP_temperature;BMP_pressure;BME280_temperature;BME280_humidity;BME280_pressure;Samples;Min_cycle;Max_cycle;Signal;HPM_P1;HPM_P2
2023/08/25 00:01:21;;;;;;;23.65;21.10;;;;;;;20.30;100.00;100948.22;5057894;28;20060;-74
2023/08/25 00:03:47;;;;;;;22.70;20.30;;;;;;;20.29;100.00;100951.81;5057655;28;20060;-74
2023/08/25 00:06:12;;;;;;;23.13;19.73;;;;;;;20.28;100.00;100958.13;5057048;28;20049;-74
2023/08/25 00:08:38;;;;;;;25.63;20.63;;;;;;;20.27;100.00;100959.09;5038762;28;20347;-74
2023/08/25 00:11:03;;;;;;;23.50;20.58;;;;;;;20.27;100.00;100959.09;5057380;28;20220;-74
2023/08/25 00:13:29;;;;;;;23.02;19.33;;;;;;;20.26;100.00;100945.91;5057202;28;20075;-74
2023/08/25 00:15:54;;;;;;;25.55;20.25;;;;;;;20.26;100.00;100945.91;5057119;28;20088;-74
2023/08/25 00:18:19;;;;;;;20.77;18.45;;;;;;;20.25;100.00;100939.75;5057427;28;20394;-74
2023/08/25 00:20:45;;;;;;;23.58;19.45;;;;;;;20.24;100.00;100938.06;5059906;28;20033;-74
2023/08/25 00:23:10;;;;;;;23.92;20.60;;;;;;;20.23;100.00;100943.47;5057890;28;20033;-74
2023/08/25 00:25:36;;;;;;;23.83;19.38;;;;;;;20.23;100.00;100943.47;5056306;28;20296;-74
2023/08/25 00:28:01;;;;;;;21.20;18.92;;;;;;;20.21;100.00;100945.41;5054621;28;20039;-74
2023/08/25 00:30:27;;;;;;;24.45;19.58;;;;;;;20.20;100.00;100954.38;5056715;28;20052;-74
2023/08/25 00:32:52;;;;;;;20.38;18.08;;;;;;;20.18;100.00;100940.38;5052465;28;20438;-74
2023/08/25 00:35:17;;;;;;;23.98;19.33;;;;;;;20.16;100.00;100943.16;5056867;28;20029;-74
2023/08/25 00:37:43;;;;;;;23.10;19.60;;;;;;;20.14;100.00;100943.25;5056619;28;20051;-74
2023/08/25 00:40:10;;;;;;;25.80;19.30;;;;;;;20.14;100.00;100950.41;5075372;28;20082;-74
2023/08/25 00:42:36;;;;;;;24.27;19.23;;;;;;;20.11;100.00;100948.81;5055575;28;20037;-74
2023/08/25 00:45:01;;;;;;;21.48;18.83;;;;;;;20.09;100.00;100950.75;5056739;28;20021;-74
2023/08/25 00:47:27;;;;;;;22.80;18.75;;;;;;;20.08;100.00;100943.75;5056027;28;20082;-74
2023/08/25 00:49:54;;;;;;;20.67;16.83;;;;;;;20.06;100.00;100953.66;5056780;28;20318;-74
2023/08/25 00:52:20;;;;;;;21.30;17.63;;;;;;;20.04;100.00;100955.59;5056268;28;20049;-74
2023/08/25 00:54:49;;;;;;;20.23;16.88;;;;;;;20.01;100.00;100954.97;5056659;28;20036;-74
2023/08/25 00:57:15;;;;;;;21.67;17.45;;;;;;;19.99;100.00;100959.56;5056970;28;20033;-74
2023/08/25 00:59:40;;;;;;;21.95;17.33;;;;;;;19.96;100.00;100955.34;5056151;28;20331;-74
2023/08/25 01:02:07;;;;;;;19.23;17.23;;;;;;;19.94;100.00;100955.47;5056296;28;20048;-74
2023/08/25 01:04:33;;;;;;;22.95;18.30;;;;;;;19.92;100.00;100949.44;5055848;28;20032;-74
2023/08/25 01:06:58;;;;;;;20.63;16.65;;;;;;;19.90;100.00;100954.03;5055877;28;20040;-74
2023/08/25 01:09:25;;;;;;;17.42;15.57;;;;;;;19.89;100.00;100946.16;5055567;28;20040;-74
2023/08/25 01:12:17;;;;;;;20.48;15.88;;;;;;;19.87;100.00;100950.75;5056075;28;20036;-74
2023/08/25 01:15:04;;;;;;;17.45;15.02;;;;;;;19.85;100.00;100955.34;5056243;28;20036;-74
2023/08/25 01:17:38;;;;;;;18.65;15.45;;;;;;;19.83;100.00;100959.91;5055741;28;20036;-74
2023/08/25 01:20:07;;;;;;;17.65;15.75;;;;;;;19.81;100.00;100948.56;5059058;28;20412;-74
2023/08/25 01:22:34;;;;;;;21.38;16.35;;;;;;;19.79;100.00;100947.84;5059141;28;20040;-74
2023/08/25 01:25:26;;;;;;;19.77;16.63;;;;;;;19.77;100.00;100947.97;5059327;28;20032;-74
2023/08/25 01:27:55;;;;;;;23.55;17.83;;;;;;;19.75;100.00;100949.91;5054710;28;20049;-74
2023/08/25 01:30:23;;;;;;;22.65;18.00;;;;;;;19.72;100.00;100937.69;5059191;28;20043;-74
2023/08/25 01:32:49;;;;;;;23.97;17.97;;;;;;;19.70;100.00;100942.25;5059558;28;20047;-74
2023/08/25 01:35:15;;;;;;;22.23;18.88;;;;;;;19.69;100.00;100942.38;5058814;28;20060;-74
2023/08/25 01:37:55;;;;;;;28.45;20.40;;;;;;;19.68;100.00;100941.53;5058997;28;20352;-74
2023/08/25 01:40:26;;;;;;;27.25;20.05;;;;;;;19.67;100.00;100942.50;5058773;28;20363;-74
2023/08/25 01:42:55;;;;;;;27.70;19.45;;;;;;;19.66;100.00;100935.47;5059393;28;20043;-74
2023/08/25 01:45:22;;;;;;;22.95;18.67;;;;;;;19.65;100.00;100938.28;5054381;28;20051;-74
2023/08/25 01:47:49;;;;;;;25.20;19.35;;;;;;;19.65;100.00;100936.47;5058209;28;20033;-74
2023/08/25 01:50:15;;;;;;;24.92;19.45;;;;;;;19.64;100.00;100932.09;5041805;28;20041;-74
2023/08/25 01:52:41;;;;;;;28.25;19.80;;;;;;;19.62;100.00;100928.72;5066299;28;20392;-74
2023/08/25 01:55:08;;;;;;;25.60;19.85;;;;;;;19.62;100.00;100934.03;5079227;28;20275;-74
2023/08/25 01:57:33;;;;;;;26.45;18.77;;;;;;;19.61;100.00;100927.03;5044022;28;20035;-74
2023/08/25 01:59:59;;;;;;;23.40;18.10;;;;;;;19.61;100.00;100926.16;5059146;28;20029;-74
2023/08/25 02:02:24;;;;;;;25.02;18.30;;;;;;;19.59;100.00;100920.97;5057982;28;20064;-74
2023/08/25 02:04:50;;;;;;;26.92;19.25;;;;;;;19.58;100.00;100921.97;5059076;28;20033;-74
2023/08/25 02:07:15;;;;;;;22.02;17.83;;;;;;;19.56;100.00;100913.25;5058537;28;20051;-74
2023/08/25 02:09:41;;;;;;;24.92;18.70;;;;;;;19.55;100.00;100912.44;5073034;28;20251;-74
2023/08/25 02:12:06;;;;;;;28.42;18.95;;;;;;;19.55;100.00;100922.19;5067066;28;20224;-74
2023/08/25 02:14:32;;;;;;;24.83;18.73;;;;;;;19.53;100.00;100916.16;5058138;28;20036;-74
2023/08/25 02:16:57;;;;;;;24.70;17.85;;;;;;;19.52;100.00;100919.78;5058475;28;20037;-74
2023/08/25 02:19:23;;;;;;;24.05;18.20;;;;;;;19.51;100.00;100920.72;5058129;28;20056;-74
2023/08/25 02:21:48;;;;;;;20.33;15.95;;;;;;;19.49;100.00;100912.88;5058065;28;20315;-74
2023/08/25 02:24:13;;;;;;;19.48;15.60;;;;;;;19.48;100.00;100913.00;5058496;28;20020;-74
2023/08/25 02:26:39;;;;;;;20.80;16.50;;;;;;;19.47;100.00;100906.00;5057591;28;20234;-74
2023/08/25 02:29:05;;;;;;;21.70;15.90;;;;;;;19.44;100.00;100900.91;5058264;28;20020;-74
2023/08/25 02:31:31;;;;;;;22.08;16.63;;;;;;;19.42;100.00;100898.38;5057454;28;20048;-74
2023/08/25 02:33:56;;;;;;;18.00;14.77;;;;;;;19.41;100.00;100898.50;5057609;28;20454;-74
2023/08/25 02:36:21;;;;;;;18.90;15.63;;;;;;;19.41;100.00;100895.84;5046110;28;20021;-74
2023/08/25 02:38:47;;;;;;;18.60;15.20;;;;;;;19.40;100.00;100880.88;5058670;28;20281;-74
2023/08/25 02:41:12;;;;;;;17.85;15.63;;;;;;;19.39;100.00;100882.69;5057288;28;20033;-76
2023/08/25 02:43:38;;;;;;;18.65;15.98;;;;;;;19.37;100.00;100874.84;5056139;28;20239;-76
2023/08/25 02:46:03;;;;;;;18.70;15.98;;;;;;;19.36;100.00;100869.66;5069968;28;20328;-76
2023/08/25 02:48:28;;;;;;;20.08;17.05;;;;;;;19.35;100.00;100871.44;5056322;28;20048;-76
2023/08/25 02:50:54;;;;;;;21.58;16.77;;;;;;;19.36;100.00;100869.66;5038646;28;20039;-76
2023/08/25 02:53:19;;;;;;;21.20;17.15;;;;;;;19.35;100.00;100863.47;5056089;28;20040;-76
2023/08/25 02:55:46;;;;;;;23.98;17.27;;;;;;;19.34;100.00;100864.47;5055701;28;20094;-76
2023/08/25 02:58:11;;;;;;;20.65;17.50;;;;;;;19.36;100.00;100856.38;5048951;28;20033;-76
2023/08/25 03:00:38;;;;;;;26.13;18.65;;;;;;;19.35;100.00;100852.84;5041321;28;20248;-75
2023/08/25 03:03:03;;;;;;;24.70;19.48;;;;;;;19.35;100.00;100854.66;5052401;28;20059;-74
2023/08/25 03:05:29;;;;;;;23.73;19.02;;;;;;;19.35;100.00;100850.19;5050948;28;20049;-74
2023/08/25 03:07:54;;;;;;;24.08;19.48;;;;;;;19.35;100.00;100857.34;5055594;28;20041;-74
2023/08/25 03:10:20;;;;;;;26.35;19.42;;;;;;;19.35;100.00;100855.50;5051715;28;20032;-74
2023/08/25 03:12:45;;;;;;;26.33;20.60;;;;;;;19.36;100.00;100851.91;5055803;28;20052;-74
2023/08/25 03:15:11;;;;;;;26.00;19.50;;;;;;;19.35;100.00;100844.06;5049299;28;20102;-74
2023/08/25 03:17:37;;;;;;;26.02;21.45;;;;;;;19.35;100.00;100836.91;5047114;28;20365;-74
2023/08/25 03:20:03;;;;;;;28.88;22.15;;;;;;;19.36;100.00;100838.63;5047835;28;20041;-74
2023/08/25 03:22:29;;;;;;;27.95;21.73;;;;;;;19.36;100.00;100835.97;5062158;28;20048;-75
2023/08/25 03:24:54;;;;;;;29.35;22.17;;;;;;;19.36;100.00;100835.97;5076337;28;20419;-74
2023/08/25 03:27:19;;;;;;;28.85;22.08;;;;;;;19.36;100.00;100830.66;5060949;28;20350;-74
2023/08/25 03:29:45;;;;;;;26.75;21.23;;;;;;;19.36;100.00;100835.97;5055639;28;20040;-74
2023/08/25 03:32:10;;;;;;;26.30;21.23;;;;;;;19.37;100.00;100835.03;5055827;28;20032;-74
2023/08/25 03:34:36;;;;;;;29.40;22.70;;;;;;;19.38;100.00;100833.19;5054962;28;20096;-75
2023/08/25 03:37:03;;;;;;;28.40;22.75;;;;;;;19.38;100.00;100836.69;5055088;28;20056;-75
2023/08/25 03:39:29;;;;;;;27.80;22.58;;;;;;;19.37;100.00;100829.72;5069467;28;20370;-75
2023/08/25 03:41:54;;;;;;;31.23;23.83;;;;;;;19.39;100.00;100832.22;5070604;28;20036;-75
2023/08/25 03:44:19;;;;;;;29.55;23.35;;;;;;;19.39;100.00;100837.53;5054977;28;20090;-74
2023/08/25 03:46:45;;;;;;;31.85;24.25;;;;;;;19.38;100.00;100825.22;5055157;28;20239;-74
2023/08/25 03:49:10;;;;;;;32.05;22.95;;;;;;;19.39;100.00;100826.91;5037376;28;20032;-74
2023/08/25 03:51:36;;;;;;;33.72;23.25;;;;;;;19.39;100.00;100832.22;5054637;28;20096;-74
2023/08/25 03:54:02;;;;;;;30.15;22.92;;;;;;;19.39;100.00;100826.91;5055361;28;20249;-74
2023/08/25 03:56:27;;;;;;;29.83;22.98;;;;;;;19.40;100.00;100819.81;5055156;28;20252;-74
2023/08/25 03:58:52;;;;;;;35.67;23.98;;;;;;;19.39;100.00;100826.91;5055379;28;20348;-74
2023/08/25 04:01:18;;;;;;;31.70;23.30;;;;;;;19.40;100.00;100818.00;5054274;28;20244;-74
2023/08/25 04:03:43;;;;;;;31.13;24.20;;;;;;;19.39;100.00;100813.63;5054322;28;20086;-74
2023/08/25 04:06:09;;;;;;;32.55;24.00;;;;;;;19.40;100.00;100810.03;5037600;28;20020;-74
2023/08/25 04:08:34;;;;;;;28.90;23.05;;;;;;;19.40;100.00;100812.69;5054460;28;20040;-74
2023/08/25 04:10:59;;;;;;;33.78;24.98;;;;;;;19.40;100.00;100814.50;5054109;28;20036;-75
2023/08/25 04:13:26;;;;;;;30.73;22.45;;;;;;;19.41;100.00;100818.81;5054229;28;20053;-74
2023/08/25 04:15:56;;;;;;;30.55;23.55;;;;;;;19.40;100.00;100812.69;5068460;28;20082;-74
2023/08/25 04:18:22;;;;;;;30.75;23.13;;;;;;;19.40;100.00;100807.38;5059886;28;20390;-74
2023/08/25 04:20:48;;;;;;;35.47;24.33;;;;;;;19.41;100.00;100809.06;5054820;28;20338;-74
2023/08/25 04:23:13;;;;;;;32.53;23.40;;;;;;;19.41;100.00;100816.16;5054417;28;20037;-74
2023/08/25 04:25:38;;;;;;;31.67;24.15;;;;;;;19.41;100.00;100806.41;5053811;28;20047;-74
2023/08/25 04:28:04;;;;;;;32.40;23.33;;;;;;;19.42;100.00;100807.25;5053868;28;20033;-74
2023/08/25 04:30:30;;;;;;;33.20;23.65;;;;;;;19.40;100.00;100804.72;5047885;28;20090;-74
2023/08/25 04:32:55;;;;;;;34.22;23.73;;;;;;;19.41;100.00;100805.56;5053899;28;20116;-74
2023/08/25 04:35:20;;;;;;;30.52;22.80;;;;;;;19.41;100.00;100814.38;5054776;28;20099;-74
2023/08/25 04:37:50;;;;;;;32.05;23.30;;;;;;;19.40;100.00;100815.34;5043999;28;20043;-74
2023/08/25 04:40:19;;;;;;;28.83;21.77;;;;;;;19.40;100.00;100815.34;5054261;28;20513;-74
2023/08/25 04:42:45;;;;;;;27.73;21.45;;;;;;;19.41;100.00;100818.81;5050253;28;20028;-74
2023/08/25 04:45:12;;;;;;;29.75;22.45;;;;;;;19.41;100.00;100811.72;5074705;28;20099;-74
2023/08/25 04:47:38;;;;;;;30.58;22.60;;;;;;;19.41;100.00;100810.88;5062572;28;20393;-74
2023/08/25 04:50:06;;;;;;;27.20;21.25;;;;;;;19.41;100.00;100816.16;5054466;28;20102;-74
2023/08/25 04:52:34;;;;;;;28.00;21.63;;;;;;;19.40;100.00;100818.00;5053617;28;20033;-74
2023/08/25 04:54:59;;;;;;;27.77;22.13;;;;;;;19.41;100.00;100813.50;5053620;28;20063;-74
2023/08/25 04:57:24;;;;;;;30.73;22.77;;;;;;;19.41;100.00;100817.03;5053873;28;20041;-74
2023/08/25 04:59:50;;;;;;;31.33;22.42;;;;;;;19.41;100.00;100821.47;5066389;28;20036;-74
2023/08/25 05:02:17;;;;;;;36.72;24.65;;;;;;;19.42;100.00;100820.53;5071529;28;20125;-74
2023/08/25 05:04:43;;;;;;;31.92;24.58;;;;;;;19.41;100.00;100819.69;5039295;28;20083;-74
2023/08/25 05:07:08;;;;;;;34.78;24.70;;;;;;;19.42;100.00;100818.72;5035677;28;20104;-74
2023/08/25 05:09:33;;;;;;;37.20;24.67;;;;;;;19.42;100.00;100817.88;5053758;28;20044;-74
2023/08/25 05:11:59;;;;;;;36.03;24.17;;;;;;;19.42;100.00;100809.91;5054079;28;20111;-74
2023/08/25 05:14:24;;;;;;;31.92;23.10;;;;;;;19.42;100.00;100812.56;5052188;28;20288;-74
2023/08/25 05:16:49;;;;;;;33.10;23.17;;;;;;;19.42;100.00;100807.25;5053603;28;20032;-74
2023/08/25 05:19:15;;;;;;;36.95;25.58;;;;;;;19.43;100.00;100814.25;5053867;28;20044;-74
2023/08/25 05:21:40;;;;;;;31.52;23.02;;;;;;;19.43;100.00;100819.56;5047107;28;20040;-74
2023/08/25 05:24:20;;;;;;;37.22;24.80;;;;;;;19.43;100.00;100819.56;5061043;28;20334;-74
2023/08/25 05:26:51;;;;;;;33.65;23.02;;;;;;;19.43;100.00;100817.75;5055617;28;20168;-74
2023/08/25 05:29:24;;;;;;;38.90;25.08;;;;;;;19.43;100.00;100811.59;5061980;28;20305;-74
2023/08/25 05:31:49;;;;;;;37.25;25.33;;;;;;;19.44;100.00;100808.81;5051662;28;20021;-74
2023/08/25 05:34:15;;;;;;;40.42;26.95;;;;;;;19.44;100.00;100802.66;5048692;28;20093;-74
2023/08/25 05:36:41;;;;;;;32.92;24.00;;;;;;;19.44;100.00;100798.19;5053074;28;20041;-74
2023/08/25 05:39:07;;;;;;;34.90;24.10;;;;;;;19.46;100.00;100795.41;5052867;28;20055;-74
2023/08/25 05:41:32;;;;;;;34.25;23.38;;;;;;;19.46;100.00;100792.75;5046661;28;20037;-74
2023/08/25 05:43:58;;;;;;;39.33;25.23;;;;;;;19.46;100.00;100804.22;5044168;28;20052;-74
2023/08/25 05:46:24;;;;;;;34.15;22.40;;;;;;;19.46;100.00;100798.06;5044880;28;20045;-74
2023/08/25 05:48:49;;;;;;;31.85;21.88;;;;;;;19.47;100.00;100799.78;5052770;28;20039;-74
2023/08/25 05:51:15;;;;;;;29.08;21.00;;;;;;;19.47;100.00;100799.78;5055912;28;20035;-74
2023/08/25 05:53:40;;;;;;;27.58;20.08;;;;;;;19.47;100.00;100800.59;5054013;28;20040;-74
2023/08/25 05:56:06;;;;;;;30.45;20.58;;;;;;;19.47;100.00;100797.13;5047987;28;20220;-74
2023/08/25 05:58:31;;;;;;;31.98;20.33;;;;;;;19.48;100.00;100797.00;5049637;28;20079;-74
2023/08/25 06:00:57;;;;;;;29.27;18.73;;;;;;;19.48;100.00;100791.69;5053350;28;20309;-74
2023/08/25 06:03:23;;;;;;;27.75;18.60;;;;;;;19.50;100.00;100791.53;5049253;28;20043;-74
2023/08/25 06:05:51;;;;;;;24.02;17.30;;;;;;;19.49;100.00;100792.53;5055493;28;20371;-74
2023/08/25 06:08:17;;;;;;;23.45;16.65;;;;;;;19.50;100.00;100780.91;5056045;28;20043;-74
2023/08/25 06:10:42;;;;;;;25.73;17.23;;;;;;;19.50;100.00;100781.78;5037071;28;20101;-74
2023/08/25 06:13:08;;;;;;;27.92;16.48;;;;;;;19.50;100.00;100776.47;5056171;28;20037;-74
2023/08/25 06:15:33;;;;;;;19.98;14.23;;;;;;;19.52;100.00;100771.88;5055605;28;20342;-74
2023/08/25 06:17:58;;;;;;;20.15;14.23;;;;;;;19.52;100.00;100771.03;5056161;28;20094;-74
2023/08/25 06:20:24;;;;;;;20.45;14.65;;;;;;;19.53;100.00;100778.03;5055981;28;20028;-74
2023/08/25 06:22:49;;;;;;;21.17;14.65;;;;;;;19.54;100.00;100787.69;5054622;28;20105;-74
2023/08/25 06:25:15;;;;;;;23.13;15.55;;;;;;;19.55;100.00;100797.34;5055693;28;20232;-74
2023/08/25 06:27:40;;;;;;;20.73;14.77;;;;;;;19.55;100.00;100789.38;5046861;28;20032;-74
2023/08/25 06:30:06;;;;;;;18.63;14.45;;;;;;;19.54;100.00;100788.53;5054891;28;20037;-74
2023/08/25 06:32:32;;;;;;;18.58;13.43;;;;;;;19.56;100.00;100796.38;5059632;28;20047;-74
2023/08/25 06:34:57;;;;;;;19.38;13.38;;;;;;;19.55;100.00;100800.88;5059020;28;20064;-74
2023/08/25 06:37:22;;;;;;;19.35;13.68;;;;;;;19.55;100.00;100794.69;5039503;28;20053;-74
2023/08/25 06:39:48;;;;;;;19.10;14.13;;;;;;;19.56;100.00;100794.56;5034533;28;20021;-74
2023/08/25 06:42:13;;;;;;;22.60;14.88;;;;;;;19.56;100.00;100797.22;5035780;28;20217;-74
2023/08/25 06:44:40;;;;;;;18.13;12.95;;;;;;;19.55;100.00;100795.56;5035324;28;20032;-74
2023/08/25 06:47:06;;;;;;;20.65;13.98;;;;;;;19.56;100.00;100796.38;5055552;28;20037;-74
2023/08/25 06:49:31;;;;;;;29.13;17.30;;;;;;;19.56;100.00;100804.34;5054785;28;20259;-74
2023/08/25 06:51:56;;;;;;;21.75;16.80;;;;;;;19.56;100.00;100794.56;5036962;28;20059;-74
2023/08/25 06:54:24;;;;;;;25.42;17.55;;;;;;;19.56;100.00;100801.69;5053169;28;20064;-74
2023/08/25 06:56:50;;;;;;;24.35;17.77;;;;;;;19.57;100.00;100800.72;5053318;28;20033;-74
2023/08/25 06:59:16;;;;;;;30.38;19.92;;;;;;;19.56;100.00;100796.38;5052901;28;20090;-74
2023/08/25 07:01:41;;;;;;;24.80;18.27;;;;;;;19.55;100.00;100787.59;5052803;28;20025;-74
2023/08/25 07:04:07;;;;;;;23.27;17.35;;;;;;;19.56;100.00;100791.06;5053397;28;20382;-74
2023/08/25 07:06:32;;;;;;;25.27;18.58;;;;;;;19.56;100.00;100793.72;5062777;28;20082;-74
2023/08/25 07:08:57;;;;;;;25.30;18.40;;;;;;;19.57;100.00;100790.09;5041547;28;20025;-74
2023/08/25 07:11:26;;;;;;;25.42;18.77;;;;;;;19.58;100.00;100783.81;5064865;28;20063;-74
2023/08/25 07:13:51;;;;;;;;;;;;;;;19.57;100.00;100771.50;5060174;28;20307;-74
2023/08/25 07:16:16;;;;;;;24.93;17.80;;;;;;;19.57;100.00;100771.50;5057980;28;19913;-74
2023/08/25 07:18:42;;;;;;;24.88;18.80;;;;;;;19.58;100.00;100767.06;5055351;28;20036;-74
2023/08/25 07:21:08;;;;;;;25.27;16.67;;;;;;;19.59;100.00;100761.59;5041936;28;20029;-74
2023/08/25 07:23:34;;;;;;;19.77;15.43;;;;;;;19.58;100.00;100756.44;5062707;28;20025;-74
2023/08/25 07:25:59;;;;;;;31.88;21.48;;;;;;;19.59;100.00;100763.41;5055188;28;20033;-74
2023/08/25 07:28:24;;;;;;;40.45;20.83;;;;;;;19.58;100.00;100759.94;5054350;28;20305;-74
2023/08/25 07:30:51;;;;;;;30.63;18.55;;;;;;;19.59;100.00;100763.41;5053920;28;20072;-74
2023/08/25 07:33:16;;;;;;;24.48;18.33;;;;;;;19.59;100.00;100769.56;5053222;28;20307;-74
2023/08/25 07:35:42;;;;;;;25.55;16.90;;;;;;;19.60;100.00;100770.44;5054602;28;20267;-74
2023/08/25 07:38:09;;;;;;;27.50;17.25;;;;;;;19.60;100.00;100770.44;5036398;28;20355;-74
2023/08/25 07:40:34;;;;;;;23.95;17.42;;;;;;;19.61;100.00;100775.63;5054279;28;20088;-74
2023/08/25 07:43:01;;;;;;;24.38;17.38;;;;;;;19.62;100.00;100771.97;5055170;28;20033;-75
2023/08/25 07:45:27;;;;;;;30.17;18.80;;;;;;;19.61;100.00;100765.00;5053951;28;20173;-74
2023/08/25 07:47:55;;;;;;;24.17;18.42;;;;;;;19.62;100.00;100771.97;5054603;28;20108;-74
2023/08/25 07:50:21;;;;;;;26.50;17.77;;;;;;;19.63;100.00;100772.81;5053917;28;20274;-74
2023/08/25 07:52:46;;;;;;;36.05;21.23;;;;;;;19.62;100.00;100779.94;5053950;28;20407;-74
2023/08/25 07:55:12;;;;;;;28.30;18.45;;;;;;;19.62;100.00;100777.28;5054794;28;20060;-74
2023/08/25 07:57:37;;;;;;;24.30;17.27;;;;;;;19.62;100.00;100787.91;5036111;28;20036;-74
2023/08/25 08:00:04;;;;;;;27.42;17.75;;;;;;;19.63;100.00;100786.97;5054617;28;20288;-74
2023/08/25 08:02:30;;;;;;;27.85;17.58;;;;;;;19.62;100.00;100782.59;5053861;28;20036;-74
2023/08/25 08:04:55;;;;;;;23.65;16.77;;;;;;;19.64;100.00;100779.84;5053150;28;20028;-74
2023/08/25 08:07:21;;;;;;;24.83;16.88;;;;;;;19.65;100.00;100781.53;5054145;28;20036;-74
2023/08/25 08:09:46;;;;;;;29.63;16.75;;;;;;;19.65;100.00;100787.69;5054314;28;20511;-74
2023/08/25 08:12:12;;;;;;;20.50;16.98;;;;;;;19.65;100.00;100785.03;5054380;28;20044;-74
2023/08/25 08:14:37;;;;;;;25.67;16.98;;;;;;;19.66;100.00;100783.22;5053840;28;20324;-74
2023/08/25 08:17:03;;;;;;;20.90;16.08;;;;;;;19.66;100.00;100777.91;5054295;28;20029;-74
2023/08/25 08:19:28;;;;;;;24.10;18.15;;;;;;;19.68;100.00;100781.28;5053589;28;20033;-74
2023/08/25 08:21:54;;;;;;;25.48;18.50;;;;;;;19.69;100.00;100788.28;5054417;28;20274;-74
2023/08/25 08:24:21;;;;;;;32.08;19.80;;;;;;;19.68;100.00;100786.59;5053308;28;20079;-74
2023/08/25 08:26:46;;;;;;;36.42;21.67;;;;;;;19.69;100.00;100785.63;5054105;28;20036;-74
2023/08/25 08:29:12;;;;;;;29.92;19.40;;;;;;;19.69;100.00;100790.94;5054184;28;20347;-74
2023/08/25 08:31:37;;;;;;;27.33;18.50;;;;;;;19.69;100.00;100785.63;5053601;28;20041;-74
2023/08/25 08:34:03;;;;;;;22.35;17.65;;;;;;;19.71;100.00;100800.47;5053719;28;20343;-74
2023/08/25 08:36:29;;;;;;;22.25;16.98;;;;;;;19.72;100.00;100793.38;5053754;28;20032;-74
2023/08/25 08:38:54;;;;;;;21.70;14.90;;;;;;;19.73;100.00;100797.72;5035893;28;20057;-74
2023/08/25 08:41:20;;;;;;;20.67;15.43;;;;;;;19.73;100.00;100795.91;5053751;28;20044;-74
2023/08/25 08:43:52;;;;;;;19.50;13.68;;;;;;;19.75;100.00;100795.78;5053692;28;20028;-74
2023/08/25 08:46:18;;;;;;;23.92;15.73;;;;;;;19.75;100.00;100787.81;5054387;28;20100;-74
2023/08/25 08:48:44;;;;;;;22.88;15.18;;;;;;;19.77;100.00;100790.34;5053915;28;20327;-74
2023/08/25 08:51:13;;;;;;;20.40;13.68;;;;;;;19.78;100.00;100786.75;5053912;28;20040;-74
2023/08/25 08:53:39;;;;;;;29.33;19.75;;;;;;;19.79;100.00;100796.38;5053280;28;20331;-74
2023/08/25 08:56:05;;;;;;;35.33;20.85;;;;;;;19.80;100.00;100801.59;5053791;28;20060;-74
2023/08/25 08:58:30;;;;;;;29.33;17.50;;;;;;;19.80;100.00;100798.94;5053569;28;20419;-74
2023/08/25 09:00:56;;;;;;;34.10;22.27;;;;;;;19.82;100.00;100801.47;5053810;28;20363;-74
2023/08/25 09:03:26;;;;;;;31.50;19.65;;;;;;;19.82;100.00;100809.44;5044978;28;20036;-74
2023/08/25 09:05:57;;;;;;;26.75;17.33;;;;;;;19.82;100.00;100806.78;5054181;28;20476;-74
2023/08/25 09:08:24;;;;;;;27.85;16.15;;;;;;;19.83;100.00;100811.09;5053387;28;20462;-74
2023/08/25 09:10:49;;;;;;;24.55;16.35;;;;;;;19.84;100.00;100813.66;5053577;28;20044;-74
2023/08/25 09:13:14;;;;;;;22.23;14.60;;;;;;;19.85;100.00;100812.69;5053921;28;20088;-74
2023/08/25 09:15:40;;;;;;;15.27;12.57;;;;;;;19.87;100.00;100813.41;5052878;28;20040;-74
2023/08/25 09:18:07;;;;;;;28.38;16.23;;;;;;;19.89;100.00;100811.47;5053639;28;20362;-74
2023/08/25 09:20:35;;;;;;;31.13;18.17;;;;;;;19.89;100.00;100819.44;5052651;28;20104;-74
2023/08/25 09:23:02;;;;;;;26.10;18.50;;;;;;;19.90;100.00;100823.81;5053344;28;20040;-74
2023/08/25 09:25:28;;;;;;;28.25;17.52;;;;;;;19.92;100.00;100821.88;5052592;28;20044;-74
2023/08/25 09:28:01;;;;;;;23.92;15.98;;;;;;;19.92;100.00;100823.69;5053247;28;20033;-74
2023/08/25 09:30:41;;;;;;;22.88;15.98;;;;;;;19.92;100.00;100824.53;5052877;28;20099;-74
2023/08/25 09:33:15;;;;;;;21.92;15.13;;;;;;;19.94;100.00;100827.06;5051730;28;20273;-74
2023/08/25 09:35:41;;;;;;;24.48;15.63;;;;;;;19.93;100.00;100823.53;5049771;28;20033;-74
2023/08/25 09:38:07;;;;;;;21.08;14.55;;;;;;;19.95;100.00;100823.41;5057473;28;20363;-74
2023/08/25 09:40:35;;;;;;;22.58;14.77;;;;;;;19.96;100.00;100824.28;5062115;28;20382;-74
2023/08/25 09:43:02;;;;;;;25.43;15.33;;;;;;;19.96;100.00;100824.28;5064801;28;20048;-74
2023/08/25 09:45:28;;;;;;;21.30;13.77;;;;;;;19.97;100.00;100820.63;5061896;28;20090;-74
2023/08/25 09:48:05;;;;;;;20.05;12.40;;;;;;;19.97;100.00;100815.31;5064872;28;20025;-74
2023/08/25 09:50:36;;;;;;;14.90;11.32;;;;;;;19.97;100.00;100816.16;5060500;28;20304;-74
2023/08/25 09:53:04;;;;;;;17.20;11.27;;;;;;;19.98;100.00;100814.38;5064251;28;20234;-74
2023/08/25 09:55:30;;;;;;;19.90;14.63;;;;;;;19.99;100.00;100819.53;5065751;28;20032;-74
2023/08/25 09:57:56;;;;;;;17.90;12.38;;;;;;;20.00;100.00;100810.59;5059868;28;20230;-74
2023/08/25 10:00:22;;;;;;;18.48;12.43;;;;;;;20.02;100.00;100818.47;5056431;28;20044;-74
2023/08/25 10:02:49;;;;;;;21.92;12.00;;;;;;;20.05;100.00;100815.56;5056693;28;20032;-74
2023/08/25 10:05:17;;;;;;;16.58;13.15;;;;;;;20.06;100.00;100815.41;5056811;28;20037;-74
2023/08/25 10:07:43;;;;;;;18.33;12.73;;;;;;;20.08;100.00;100804.66;5048754;28;20110;-74
2023/08/25 10:10:09;;;;;;;18.90;11.45;;;;;;;20.10;100.00;100813.34;5056598;28;20478;-74
2023/08/25 10:12:37;;;;;;;20.95;12.00;;;;;;;20.11;100.00;100791.97;5038161;28;20328;-74
2023/08/25 10:15:07;;;;;;;20.40;13.25;;;;;;;20.13;100.00;100795.34;5056675;28;20032;-74
2023/08/25 10:17:35;;;;;;;18.73;13.15;;;;;;;20.14;100.00;100790.88;5055880;28;20037;-74
2023/08/25 10:20:04;;;;;;;19.95;13.60;;;;;;;20.15;100.00;100784.59;5056748;28;20354;-74
2023/08/25 10:22:33;;;;;;;23.48;13.73;;;;;;;20.17;100.00;100785.28;5056173;28;20321;-74
2023/08/25 10:25:03;;;;;;;18.55;13.00;;;;;;;20.20;100.00;100778.91;5056261;28;20869;-74
2023/08/25 10:27:31;;;;;;;16.42;11.93;;;;;;;20.23;100.00;100782.16;5038262;28;20071;-74
2023/08/25 10:29:58;;;;;;;21.88;15.32;;;;;;;20.24;100.00;100775.84;5056203;28;20348;-74
2023/08/25 10:32:23;;;;;;;18.65;12.98;;;;;;;20.26;100.00;100784.53;5056310;28;20370;-74
2023/08/25 10:34:52;;;;;;;18.77;14.52;;;;;;;20.29;100.00;100780.81;5055877;28;20021;-74
2023/08/25 10:37:26;;;;;;;24.23;16.52;;;;;;;20.32;100.00;100788.53;5055860;28;20335;-74
2023/08/25 10:39:56;;;;;;;24.95;17.55;;;;;;;20.36;100.00;100781.16;5056281;28;20340;-74
2023/08/25 10:42:32;;;;;;;25.52;17.45;;;;;;;20.39;100.00;100788.84;5033051;28;20079;-74
2023/08/25 10:45:04;;;;;;;18.25;14.93;;;;;;;20.41;100.00;100787.78;5036111;28;20033;-74
2023/08/25 10:47:30;;;;;;;26.17;15.93;;;;;;;20.44;100.00;100789.31;5035176;28;20348;-74
2023/08/25 10:49:59;;;;;;;16.67;14.38;;;;;;;20.47;100.00;100797.06;5035890;28;20041;-74
2023/08/25 10:52:24;;;;;;;21.17;16.42;;;;;;;20.48;100.00;100788.09;5033881;28;20243;-74
2023/08/25 10:54:54;;;;;;;17.17;14.25;;;;;;;20.50;100.00;100789.66;5017403;28;20056;-74
2023/08/25 10:57:26;;;;;;;14.95;13.52;;;;;;;20.52;100.00;100785.06;5035216;28;20041;-74
2023/08/25 10:59:55;;;;;;;21.58;13.43;;;;;;;20.52;100.00;100795.69;5035726;28;20256;-74